sensor_id;sensor_type;location;lat;lon;timestamp;pressure;altitude;pressure_sealevel;temperature;humidity
11049;BME280;5577;42.706;23.160;2024-02-21T00:02:37;94768.16;;;6.24;100.00
11049;BME280;5577;42.706;23.160;2024-02-21T00:05:21;94772.50;;;6.28;100.00
11049;BME280;5577;42.706;23.160;2024-02-21T00:08:05;94771.59;;;6.33;100.00
11049;BME280;5577;42.706;23.160;2024-02-21T00:10:49;94759.66;;;6.27;100.00
11049;BME280;5577;42.706;23.160;2024-02-21T00:13:33;94771.47;;;6.38;100.00
11049;BME280;5577;42.706;23.160;2024-02-21T00:16:17;94769.31;;;6.40;100.00
11049;BME280;5577;42.706;23.160;2024-02-21T00:19:01;94769.88;;;6.28;100.00
11049;BME280;5577;42.706;23.160;2024-02-21T00:21:45;94764.91;;;6.27;100.00
11049;BME280;5577;42.706;23.160;2024-02-21T00:24:29;94768.84;;;6.07;100.00
11049;BME280;5577;42.706;23.160;2024-02-21T00:27:13;94767.63;;;6.13;100.00
11049;BME280;5577;42.706;23.160;2024-02-21T00:29:57;94760.69;;;6.17;100.00
11049;BME280;5577;42.706;23.160;2024-02-21T00:32:41;94757.91;;;6.14;100.00
11049;BME280;5577;42.706;23.160;2024-02-21T00:35:25;94762.28;;;6.27;100.00
11049;BME280;5577;42.706;23.160;2024-02-21T00:38:08;94761.25;;;6.06;100.00
11049;BME280;5577;42.706;23.160;2024-02-21T00:40:53;94753.03;;;5.98;100.00
11049;BME280;5577;42.706;23.160;2024-02-21T00:43:37;94760.41;;;5.88;100.00
11049;BME280;5577;42.706;23.160;2024-02-21T00:46:20;94752.94;;;5.81;100.00
11049;BME280;5577;42.706;23.160;2024-02-21T00:49:04;94747.84;;;5.85;100.00
11049;BME280;5577;42.706;23.160;2024-02-21T00:51:49;94753.41;;;5.83;100.00
11049;BME280;5577;42.706;23.160;2024-02-21T00:54:33;94755.44;;;5.86;100.00
11049;BME280;5577;42.706;23.160;2024-02-21T00:57:17;94744.34;;;5.89;100.00
11049;BME280;5577;42.706;23.160;2024-02-21T01:00:02;94744.44;;;5.84;100.00
11049;BME280;5577;42.706;23.160;2024-02-21T01:02:46;94743.44;;;5.94;100.00
11049;BME280;5577;42.706;23.160;2024-02-21T01:05:30;94741.66;;;5.81;100.00
11049;BME280;5577;42.706;23.160;2024-02-21T01:08:14;94734.28;;;5.91;100.00
11049;BME280;5577;42.706;23.160;2024-02-21T01:10:58;94736.44;;;5.89;100.00
11049;BME280;5577;42.706;23.160;2024-02-21T01:13:43;94733.63;;;5.64;100.00
11049;BME280;5577;42.706;23.160;2024-02-21T01:16:27;94733.78;;;5.59;100.00
11049;BME280;5577;42.706;23.160;2024-02-21T01:19:10;94736.25;;;5.64;100.00
11049;BME280;5577;42.706;23.160;2024-02-21T01:21:54;94724.50;;;5.61;100.00
11049;BME280;5577;42.706;23.160;2024-02-21T01:24:38;94734.47;;;5.51;100.00
11049;BME280;5577;42.706;23.160;2024-02-21T01:27:22;94725.84;;;5.50;100.00
11049;BME280;5577;42.706;23.160;2024-02-21T01:30:07;94723.00;;;5.47;100.00
11049;BME280;5577;42.706;23.160;2024-02-21T01:32:51;94720.16;;;5.57;100.00
11049;BME280;5577;42.706;23.160;2024-02-21T01:35:35;94720.59;;;5.50;100.00
11049;BME280;5577;42.706;23.160;2024-02-21T01:38:20;94709.16;;;5.55;100.00
11049;BME280;5577;42.706;23.160;2024-02-21T01:41:05;94715.69;;;5.57;100.00
11049;BME280;5577;42.706;23.160;2024-02-21T01:43:48;94713.41;;;5.64;100.00
11049;BME280;5577;42.706;23.160;2024-02-21T01:46:33;94706.34;;;5.73;100.00
11049;BME280;5577;42.706;23.160;2024-02-21T01:49:19;94704.94;;;5.67;100.00
11049;BME280;5577;42.706;23.160;2024-02-21T01:52:03;94711.19;;;5.80;100.00
11049;BME280;5577;42.706;23.160;2024-02-21T01:54:48;94707.34;;;5.86;100.00
11049;BME280;5577;42.706;23.160;2024-02-21T01:57:32;94708.94;;;5.87;100.00
11049;BME280;5577;42.706;23.160;2024-02-21T02:00:17;94712.00;;;5.89;100.00
11049;BME280;5577;42.706;23.160;2024-02-21T02:03:02;94713.88;;;5.88;100.00
11049;BME280;5577;42.706;23.160;2024-02-21T02:05:47;94698.75;;;5.72;100.00
11049;BME280;5577;42.706;23.160;2024-02-21T02:08:31;94700.28;;;5.64;100.00
11049;BME280;5577;42.706;23.160;2024-02-21T02:11:16;94681.25;;;5.59;100.00
11049;BME280;5577;42.706;23.160;2024-02-21T02:14:00;94701.03;;;5.65;100.00
11049;BME280;5577;42.706;23.160;2024-02-21T02:16:47;94694.69;;;5.57;100.00
11049;BME280;5577;42.706;23.160;2024-02-21T02:19:31;94695.03;;;5.42;100.00
11049;BME280;5577;42.706;23.160;2024-02-21T02:22:20;94688.22;;;5.41;100.00
11049;BME280;5577;42.706;23.160;2024-02-21T02:25:06;94694.72;;;5.44;100.00
11049;BME280;5577;42.706;23.160;2024-02-21T02:27:50;94687.44;;;5.41;100.00
11049;BME280;5577;42.706;23.160;2024-02-21T02:30:35;94691.69;;;5.50;100.00
11049;BME280;5577;42.706;23.160;2024-02-21T02:33:20;94680.59;;;5.53;100.00
11049;BME280;5577;42.706;23.160;2024-02-21T02:36:04;94665.84;;;5.44;100.00
11049;BME280;5577;42.706;23.160;2024-02-21T02:38:49;94682.97;;;5.41;100.00
11049;BME280;5577;42.706;23.160;2024-02-21T02:41:35;94679.66;;;5.27;100.00
11049;BME280;5577;42.706;23.160;2024-02-21T02:44:19;94682.94;;;5.33;100.00
11049;BME280;5577;42.706;23.160;2024-02-21T02:47:03;94679.06;;;5.30;100.00
11049;BME280;5577;42.706;23.160;2024-02-21T02:49:47;94686.09;;;5.21;100.00
11049;BME280;5577;42.706;23.160;2024-02-21T02:52:34;94690.16;;;5.05;100.00
11049;BME280;5577;42.706;23.160;2024-02-21T02:55:18;94687.94;;;4.99;100.00
11049;BME280;5577;42.706;23.160;2024-02-21T02:58:03;94691.53;;;5.03;100.00
11049;BME280;5577;42.706;23.160;2024-02-21T03:00:47;94680.59;;;4.87;100.00
11049;BME280;5577;42.706;23.160;2024-02-21T03:03:30;94686.19;;;4.94;100.00
11049;BME280;5577;42.706;23.160;2024-02-21T03:06:14;94682.78;;;4.94;100.00
11049;BME280;5577;42.706;23.160;2024-02-21T03:08:58;94693.66;;;5.01;100.00
11049;BME280;5577;42.706;23.160;2024-02-21T03:11:44;94688.69;;;4.99;100.00
11049;BME280;5577;42.706;23.160;2024-02-21T03:14:28;94700.09;;;4.95;100.00
11049;BME280;5577;42.706;23.160;2024-02-21T03:17:13;94678.44;;;4.89;100.00
11049;BME280;5577;42.706;23.160;2024-02-21T03:19:57;94641.19;;;4.65;100.00
11049;BME280;5577;42.706;23.160;2024-02-21T03:22:41;94695.97;;;5.02;100.00
11049;BME280;5577;42.706;23.160;2024-02-21T03:25:25;94707.78;;;5.13;100.00
11049;BME280;5577;42.706;23.160;2024-02-21T03:28:09;94696.34;;;5.09;100.00
11049;BME280;5577;42.706;23.160;2024-02-21T03:30:53;94695.75;;;5.12;100.00
11049;BME280;5577;42.706;23.160;2024-02-21T03:33:37;94709.13;;;5.24;100.00
11049;BME280;5577;42.706;23.160;2024-02-21T03:36:22;94710.06;;;5.28;100.00
11049;BME280;5577;42.706;23.160;2024-02-21T03:39:06;94710.31;;;5.18;100.00
11049;BME280;5577;42.706;23.160;2024-02-21T03:41:51;94693.34;;;5.02;100.00
11049;BME280;5577;42.706;23.160;2024-02-21T03:44:36;94701.06;;;5.21;100.00
11049;BME280;5577;42.706;23.160;2024-02-21T03:47:20;94703.78;;;5.16;100.00
11049;BME280;5577;42.706;23.160;2024-02-21T03:50:06;94698.63;;;5.24;100.00
11049;BME280;5577;42.706;23.160;2024-02-21T03:52:50;94705.97;;;5.36;100.00
11049;BME280;5577;42.706;23.160;2024-02-21T03:55:34;94707.63;;;5.32;100.00
11049;BME280;5577;42.706;23.160;2024-02-21T03:58:18;94707.94;;;5.30;100.00
11049;BME280;5577;42.706;23.160;2024-02-21T04:01:02;94710.25;;;5.32;100.00
11049;BME280;5577;42.706;23.160;2024-02-21T04:03:47;94710.63;;;5.39;100.00
11049;BME280;5577;42.706;23.160;2024-02-21T04:06:31;94713.09;;;5.44;100.00
11049;BME280;5577;42.706;23.160;2024-02-21T04:09:14;94718.25;;;5.49;100.00
11049;BME280;5577;42.706;23.160;2024-02-21T04:12:00;94710.47;;;5.44;100.00
11049;BME280;5577;42.706;23.160;2024-02-21T04:14:44;94712.22;;;5.48;100.00
11049;BME280;5577;42.706;23.160;2024-02-21T04:17:28;94708.50;;;5.49;100.00
11049;BME280;5577;42.706;23.160;2024-02-21T04:20:15;94708.81;;;5.26;100.00
11049;BME280;5577;42.706;23.160;2024-02-21T04:22:59;94712.53;;;5.25;100.00
11049;BME280;5577;42.706;23.160;2024-02-21T04:25:43;94705.81;;;5.19;100.00
11049;BME280;5577;42.706;23.160;2024-02-21T04:28:27;94704.75;;;5.20;100.00
11049;BME280;5577;42.706;23.160;2024-02-21T04:31:11;94704.00;;;5.19;100.00
11049;BME280;5577;42.706;23.160;2024-02-21T04:33:56;94702.25;;;5.15;100.00
11049;BME280;5577;42.706;23.160;2024-02-21T04:36:40;94706.69;;;5.06;100.00
11049;BME280;5577;42.706;23.160;2024-02-21T04:39:24;94712.31;;;4.99;100.00
11049;BME280;5577;42.706;23.160;2024-02-21T04:42:07;94714.19;;;4.85;100.00
11049;BME280;5577;42.706;23.160;2024-02-21T04:44:51;94706.53;;;4.75;100.00
11049;BME280;5577;42.706;23.160;2024-02-21T04:47:35;94719.38;;;4.77;100.00
11049;BME280;5577;42.706;23.160;2024-02-21T04:50:19;94713.41;;;4.49;100.00
11049;BME280;5577;42.706;23.160;2024-02-21T04:53:03;94720.28;;;4.59;100.00
11049;BME280;5577;42.706;23.160;2024-02-21T04:55:47;94719.56;;;4.67;100.00
11049;BME280;5577;42.706;23.160;2024-02-21T04:58:32;94723.31;;;4.52;100.00
11049;BME280;5577;42.706;23.160;2024-02-21T05:01:16;94718.22;;;4.56;100.00
11049;BME280;5577;42.706;23.160;2024-02-21T05:04:00;94717.56;;;4.64;100.00
11049;BME280;5577;42.706;23.160;2024-02-21T05:06:44;94711.63;;;4.72;100.00
11049;BME280;5577;42.706;23.160;2024-02-21T05:09:28;94726.94;;;4.78;100.00
11049;BME280;5577;42.706;23.160;2024-02-21T05:12:12;94728.28;;;4.89;100.00
11049;BME280;5577;42.706;23.160;2024-02-21T05:14:56;94725.13;;;5.01;100.00
11049;BME280;5577;42.706;23.160;2024-02-21T05:17:40;94716.81;;;4.99;100.00
11049;BME280;5577;42.706;23.160;2024-02-21T05:20:23;94724.34;;;5.00;100.00
11049;BME280;5577;42.706;23.160;2024-02-21T05:23:07;94732.59;;;5.07;100.00
11049;BME280;5577;42.706;23.160;2024-02-21T05:25:51;94730.69;;;5.21;100.00
11049;BME280;5577;42.706;23.160;2024-02-21T05:28:35;94735.72;;;5.31;100.00
11049;BME280;5577;42.706;23.160;2024-02-21T05:31:20;94734.47;;;5.29;100.00
11049;BME280;5577;42.706;23.160;2024-02-21T05:34:05;94731.19;;;5.23;100.00
11049;BME280;5577;42.706;23.160;2024-02-21T05:36:49;94736.81;;;5.30;100.00
11049;BME280;5577;42.706;23.160;2024-02-21T05:39:36;94733.41;;;5.30;100.00
11049;BME280;5577;42.706;23.160;2024-02-21T05:42:20;94737.47;;;5.36;100.00
11049;BME280;5577;42.706;23.160;2024-02-21T05:45:04;94742.13;;;5.39;100.00
11049;BME280;5577;42.706;23.160;2024-02-21T05:47:48;94732.50;;;5.56;100.00
11049;BME280;5577;42.706;23.160;2024-02-21T05:50:33;94747.25;;;5.66;100.00
11049;BME280;5577;42.706;23.160;2024-02-21T05:53:17;94740.13;;;5.66;100.00
11049;BME280;5577;42.706;23.160;2024-02-21T05:56:01;94749.00;;;5.79;100.00
11049;BME280;5577;42.706;23.160;2024-02-21T05:58:45;94744.97;;;5.95;100.00
11049;BME280;5577;42.706;23.160;2024-02-21T06:01:29;94749.53;;;6.12;100.00
11049;BME280;5577;42.706;23.160;2024-02-21T06:04:13;94747.88;;;6.24;100.00
11049;BME280;5577;42.706;23.160;2024-02-21T06:06:57;94751.75;;;6.27;100.00
11049;BME280;5577;42.706;23.160;2024-02-21T06:09:41;94757.06;;;6.35;100.00
11049;BME280;5577;42.706;23.160;2024-02-21T06:12:25;94759.72;;;6.44;100.00
11049;BME280;5577;42.706;23.160;2024-02-21T06:15:09;94763.75;;;6.41;100.00
11049;BME280;5577;42.706;23.160;2024-02-21T06:17:52;94767.50;;;6.49;100.00
11049;BME280;5577;42.706;23.160;2024-02-21T06:20:37;94757.44;;;6.51;100.00
11049;BME280;5577;42.706;23.160;2024-02-21T06:23:24;94772.00;;;6.57;100.00
11049;BME280;5577;42.706;23.160;2024-02-21T06:26:08;94765.56;;;6.71;100.00
11049;BME280;5577;42.706;23.160;2024-02-21T06:28:52;94769.13;;;6.75;100.00
11049;BME280;5577;42.706;23.160;2024-02-21T06:31:36;94773.03;;;6.95;100.00
11049;BME280;5577;42.706;23.160;2024-02-21T06:34:20;94776.28;;;7.00;100.00
11049;BME280;5577;42.706;23.160;2024-02-21T06:37:04;94777.06;;;7.09;100.00
11049;BME280;5577;42.706;23.160;2024-02-21T06:39:48;94773.34;;;7.02;100.00
11049;BME280;5577;42.706;23.160;2024-02-21T06:42:32;94783.41;;;7.00;100.00
11049;BME280;5577;42.706;23.160;2024-02-21T06:45:16;94773.63;;;6.92;100.00
11049;BME280;5577;42.706;23.160;2024-02-21T06:48:00;94780.31;;;7.15;100.00
11049;BME280;5577;42.706;23.160;2024-02-21T06:50:45;94782.97;;;7.40;100.00
11049;BME280;5577;42.706;23.160;2024-02-21T06:53:29;94779.59;;;7.48;100.00
11049;BME280;5577;42.706;23.160;2024-02-21T06:56:13;94780.97;;;7.71;100.00
11049;BME280;5577;42.706;23.160;2024-02-21T06:58:57;94786.22;;;7.37;100.00
11049;BME280;5577;42.706;23.160;2024-02-21T07:01:59;94794.75;;;7.51;100.00
11049;BME280;5577;42.706;23.160;2024-02-21T07:04:44;94788.69;;;7.17;100.00
11049;BME280;5577;42.706;23.160;2024-02-21T07:07:28;94791.81;;;7.10;100.00
11049;BME280;5577;42.706;23.160;2024-02-21T07:10:13;94778.47;;;7.15;100.00
11049;BME280;5577;42.706;23.160;2024-02-21T07:12:57;94790.75;;;7.54;100.00
11049;BME280;5577;42.706;23.160;2024-02-21T07:15:41;94789.50;;;7.77;100.00
11049;BME280;5577;42.706;23.160;2024-02-21T07:18:25;94790.72;;;7.88;100.00
11049;BME280;5577;42.706;23.160;2024-02-21T07:21:09;94783.59;;;7.80;100.00
11049;BME280;5577;42.706;23.160;2024-02-21T07:23:53;94795.22;;;7.79;100.00
11049;BME280;5577;42.706;23.160;2024-02-21T07:26:37;94795.69;;;7.81;100.00
11049;BME280;5577;42.706;23.160;2024-02-21T07:29:24;94795.72;;;7.47;100.00
11049;BME280;5577;42.706;23.160;2024-02-21T07:32:08;94796.44;;;7.22;100.00
11049;BME280;5577;42.706;23.160;2024-02-21T07:34:52;94803.31;;;7.40;100.00
11049;BME280;5577;42.706;23.160;2024-02-21T07:37:36;94769.50;;;7.42;100.00
11049;BME280;5577;42.706;23.160;2024-02-21T07:40:21;94789.03;;;7.75;100.00
11049;BME280;5577;42.706;23.160;2024-02-21T07:43:05;94801.41;;;7.91;100.00
11049;BME280;5577;42.706;23.160;2024-02-21T07:45:49;94795.66;;;7.98;100.00
11049;BME280;5577;42.706;23.160;2024-02-21T07:48:33;94794.13;;;7.97;100.00
11049;BME280;5577;42.706;23.160;2024-02-21T07:51:17;94787.25;;;8.13;100.00
11049;BME280;5577;42.706;23.160;2024-02-21T07:54:02;94793.13;;;8.27;100.00
11049;BME280;5577;42.706;23.160;2024-02-21T07:56:48;94784.75;;;8.33;100.00
11049;BME280;5577;42.706;23.160;2024-02-21T07:59:31;94791.28;;;8.27;100.00
11049;BME280;5577;42.706;23.160;2024-02-21T08:02:16;94790.69;;;8.05;100.00
11049;BME280;5577;42.706;23.160;2024-02-21T08:05:00;94786.63;;;8.24;100.00
11049;BME280;5577;42.706;23.160;2024-02-21T08:07:44;94788.06;;;8.59;100.00
11049;BME280;5577;42.706;23.160;2024-02-21T08:10:28;94779.25;;;8.55;100.00
11049;BME280;5577;42.706;23.160;2024-02-21T08:13:12;94776.47;;;9.10;100.00
11049;BME280;5577;42.706;23.160;2024-02-21T08:15:56;94742.88;;;9.19;100.00
11049;BME280;5577;42.706;23.160;2024-02-21T08:18:40;94787.09;;;9.51;100.00
11049;BME280;5577;42.706;23.160;2024-02-21T08:21:27;94747.16;;;9.24;100.00
11049;BME280;5577;42.706;23.160;2024-02-21T08:24:11;94791.06;;;8.87;100.00
11049;BME280;5577;42.706;23.160;2024-02-21T08:26:55;94780.88;;;8.77;100.00
11049;BME280;5577;42.706;23.160;2024-02-21T08:29:39;94782.66;;;9.14;100.00
11049;BME280;5577;42.706;23.160;2024-02-21T08:32:23;94779.81;;;8.99;100.00
11049;BME280;5577;42.706;23.160;2024-02-21T08:35:07;94787.91;;;8.94;100.00
11049;BME280;5577;42.706;23.160;2024-02-21T08:37:51;94785.00;;;9.16;100.00
11049;BME280;5577;42.706;23.160;2024-02-21T08:40:36;94792.81;;;9.33;100.00
11049;BME280;5577;42.706;23.160;2024-02-21T08:43:20;94785.44;;;9.79;100.00
11049;BME280;5577;42.706;23.160;2024-02-21T08:46:05;94793.81;;;9.81;100.00
11049;BME280;5577;42.706;23.160;2024-02-21T08:48:49;94800.66;;;9.62;100.00
11049;BME280;5577;42.706;23.160;2024-02-21T08:51:33;94794.47;;;9.78;100.00
11049;BME280;5577;42.706;23.160;2024-02-21T08:54:18;94790.66;;;10.08;100.00
11049;BME280;5577;42.706;23.160;2024-02-21T08:57:02;94790.41;;;10.46;100.00
11049;BME280;5577;42.706;23.160;2024-02-21T08:59:46;94794.72;;;10.50;100.00
11049;BME280;5577;42.706;23.160;2024-02-21T09:02:31;94797.84;;;10.88;100.00
11049;BME280;5577;42.706;23.160;2024-02-21T09:05:15;94802.25;;;10.72;100.00
11049;BME280;5577;42.706;23.160;2024-02-21T09:07:59;94797.44;;;10.98;99.92
11049;BME280;5577;42.706;23.160;2024-02-21T09:10:43;94797.53;;;11.14;93.64
11049;BME280;5577;42.706;23.160;2024-02-21T09:13:27;94799.25;;;11.46;90.42
11049;BME280;5577;42.706;23.160;2024-02-21T09:16:11;94788.59;;;10.94;97.73
11049;BME280;5577;42.706;23.160;2024-02-21T09:18:55;94793.94;;;10.50;100.00
11049;BME280;5577;42.706;23.160;2024-02-21T09:21:41;94793.91;;;10.26;100.00
11049;BME280;5577;42.706;23.160;2024-02-21T09:24:25;94798.44;;;10.25;100.00
11049;BME280;5577;42.706;23.160;2024-02-21T09:27:09;94792.25;;;10.33;100.00
11049;BME280;5577;42.706;23.160;2024-02-21T09:29:52;94796.19;;;10.15;100.00
11049;BME280;5577;42.706;23.160;2024-02-21T09:32:37;94787.19;;;10.28;100.00
11049;BME280;5577;42.706;23.160;2024-02-21T09:35:21;94796.31;;;11.23;95.73
11049;BME280;5577;42.706;23.160;2024-02-21T09:38:07;94793.97;;;11.86;87.13
11049;BME280;5577;42.706;23.160;2024-02-21T09:40:59;94762.94;;;11.34;80.69
11049;BME280;5577;42.706;23.160;2024-02-21T09:43:44;94805.41;;;12.02;78.08
11049;BME280;5577;42.706;23.160;2024-02-21T09:49:40;94783.78;;;12.15;73.68
11049;BME280;5577;42.706;23.160;2024-02-21T09:52:26;94755.78;;;13.26;69.83
11049;BME280;5577;42.706;23.160;2024-02-21T09:55:10;94796.06;;;13.97;66.96
11049;BME280;5577;42.706;23.160;2024-02-21T09:57:57;94798.47;;;14.02;65.65
11049;BME280;5577;42.706;23.160;2024-02-21T10:00:41;94795.47;;;13.69;66.65
11049;BME280;5577;42.706;23.160;2024-02-21T10:03:25;94803.81;;;13.33;66.00
11049;BME280;5577;42.706;23.160;2024-02-21T10:06:09;94795.78;;;12.68;67.35
11049;BME280;5577;42.706;23.160;2024-02-21T10:08:54;94801.69;;;12.61;66.85
11049;BME280;5577;42.706;23.160;2024-02-21T10:11:38;94792.34;;;12.83;65.60
11049;BME280;5577;42.706;23.160;2024-02-21T10:14:22;94788.50;;;12.65;65.24
11049;BME280;5577;42.706;23.160;2024-02-21T10:17:06;94779.41;;;12.81;65.24
11049;BME280;5577;42.706;23.160;2024-02-21T10:19:53;94781.13;;;12.15;66.04
11049;BME280;5577;42.706;23.160;2024-02-21T10:22:37;94771.22;;;12.28;64.96
11049;BME280;5577;42.706;23.160;2024-02-21T10:25:23;94774.84;;;12.51;64.35
11049;BME280;5577;42.706;23.160;2024-02-21T10:28:07;94767.34;;;12.53;64.96
11049;BME280;5577;42.706;23.160;2024-02-21T10:30:51;94763.13;;;12.83;62.03
11049;BME280;5577;42.706;23.160;2024-02-21T10:33:36;94756.69;;;13.68;60.85
11049;BME280;5577;42.706;23.160;2024-02-21T10:36:21;94750.63;;;13.87;57.80
11049;BME280;5577;42.706;23.160;2024-02-21T10:39:05;94745.25;;;14.06;56.54
11049;BME280;5577;42.706;23.160;2024-02-21T10:41:49;94746.84;;;14.49;55.69
11049;BME280;5577;42.706;23.160;2024-02-21T10:44:36;94743.81;;;14.27;57.22
11049;BME280;5577;42.706;23.160;2024-02-21T10:47:22;94728.78;;;14.61;55.26
11049;BME280;5577;42.706;23.160;2024-02-21T10:50:07;94734.66;;;15.22;54.78
11049;BME280;5577;42.706;23.160;2024-02-21T10:53:23;94723.13;;;14.02;55.62
11049;BME280;5577;42.706;23.160;2024-02-21T10:56:34;94719.94;;;13.01;56.82
11049;BME280;5577;42.706;23.160;2024-02-21T10:59:21;94712.41;;;12.57;56.93
11049;BME280;5577;42.706;23.160;2024-02-21T11:02:05;94711.03;;;12.63;57.87
11049;BME280;5577;42.706;23.160;2024-02-21T11:04:50;94707.25;;;12.79;56.30
11049;BME280;5577;42.706;23.160;2024-02-21T11:07:37;94705.28;;;12.76;57.11
11049;BME280;5577;42.706;23.160;2024-02-21T11:10:25;94700.06;;;12.49;57.68
11049;BME280;5577;42.706;23.160;2024-02-21T11:13:10;94709.06;;;12.29;56.14
11049;BME280;5577;42.706;23.160;2024-02-21T11:16:06;94700.59;;;12.23;58.36
11049;BME280;5577;42.706;23.160;2024-02-21T11:18:50;94690.38;;;12.10;57.89
11049;BME280;5577;42.706;23.160;2024-02-21T11:21:35;94703.19;;;11.92;58.44
11049;BME280;5577;42.706;23.160;2024-02-21T11:27:20;94688.72;;;11.34;59.43
11049;BME280;5577;42.706;23.160;2024-02-21T11:30:05;94693.78;;;10.88;59.88
11049;BME280;5577;42.706;23.160;2024-02-21T11:32:49;94689.34;;;10.92;61.18
11049;BME280;5577;42.706;23.160;2024-02-21T11:35:34;94688.59;;;10.91;61.31
11049;BME280;5577;42.706;23.160;2024-02-21T11:38:19;94682.97;;;10.93;62.40
11049;BME280;5577;42.706;23.160;2024-02-21T11:41:08;94685.94;;;10.91;62.70
11049;BME280;5577;42.706;23.160;2024-02-21T11:43:52;94683.25;;;11.15;62.93
11049;BME280;5577;42.706;23.160;2024-02-21T11:46:35;94673.06;;;11.17;64.52
11049;BME280;5577;42.706;23.160;2024-02-21T11:49:19;94676.06;;;11.16;65.20
11049;BME280;5577;42.706;23.160;2024-02-21T11:52:04;94671.78;;;10.99;65.21
11049;BME280;5577;42.706;23.160;2024-02-21T11:54:48;94640.09;;;10.51;65.32
11049;BME280;5577;42.706;23.160;2024-02-21T11:57:32;94676.38;;;10.63;65.47
11049;BME280;5577;42.706;23.160;2024-02-21T12:00:18;94664.56;;;10.60;66.26
11049;BME280;5577;42.706;23.160;2024-02-21T12:03:05;94665.75;;;10.87;66.65
11049;BME280;5577;42.706;23.160;2024-02-21T12:05:49;94660.59;;;10.54;66.01
11049;BME280;5577;42.706;23.160;2024-02-21T12:08:43;94656.19;;;10.70;67.46
11049;BME280;5577;42.706;23.160;2024-02-21T12:11:28;94654.06;;;10.64;65.42
11049;BME280;5577;42.706;23.160;2024-02-21T12:14:16;94659.81;;;10.54;66.80
11049;BME280;5577;42.706;23.160;2024-02-21T12:17:01;94662.09;;;10.91;66.02
11049;BME280;5577;42.706;23.160;2024-02-21T12:19:47;94649.03;;;11.10;62.92
11049;BME280;5577;42.706;23.160;2024-02-21T12:22:31;94657.50;;;11.16;62.08
11049;BME280;5577;42.706;23.160;2024-02-21T12:25:19;94647.63;;;11.28;62.55
11049;BME280;5577;42.706;23.160;2024-02-21T12:28:06;94649.78;;;11.50;61.66
11049;BME280;5577;42.706;23.160;2024-02-21T12:30:51;94645.56;;;11.62;60.70
11049;BME280;5577;42.706;23.160;2024-02-21T12:33:36;94643.03;;;11.96;58.76
11049;BME280;5577;42.706;23.160;2024-02-21T12:36:20;94647.47;;;11.92;59.41
11049;BME280;5577;42.706;23.160;2024-02-21T12:39:04;94649.03;;;12.09;58.16
11049;BME280;5577;42.706;23.160;2024-02-21T12:41:48;94638.50;;;11.97;59.53
11049;BME280;5577;42.706;23.160;2024-02-21T12:44:32;94638.75;;;12.23;60.32
11049;BME280;5577;42.706;23.160;2024-02-21T12:47:16;94632.47;;;12.46;60.80
11049;BME280;5577;42.706;23.160;2024-02-21T12:50:01;94627.47;;;12.10;62.55
11049;BME280;5577;42.706;23.160;2024-02-21T12:52:47;94634.81;;;12.01;62.88
11049;BME280;5577;42.706;23.160;2024-02-21T12:55:33;94632.06;;;11.54;66.94
11049;BME280;5577;42.706;23.160;2024-02-21T12:58:17;94628.19;;;11.36;69.72
11049;BME280;5577;42.706;23.160;2024-02-21T13:01:01;94613.09;;;11.25;71.25
11049;BME280;5577;42.706;23.160;2024-02-21T13:03:45;94615.78;;;11.13;74.51
11049;BME280;5577;42.706;23.160;2024-02-21T13:06:30;94615.50;;;10.90;77.58
11049;BME280;5577;42.706;23.160;2024-02-21T13:09:15;94605.50;;;10.84;77.29
11049;BME280;5577;42.706;23.160;2024-02-21T13:11:59;94611.44;;;10.93;74.02
11049;BME280;5577;42.706;23.160;2024-02-21T13:14:43;94606.56;;;11.07;70.04
11049;BME280;5577;42.706;23.160;2024-02-21T13:17:28;94582.94;;;11.73;68.66
11049;BME280;5577;42.706;23.160;2024-02-21T13:20:14;94598.13;;;12.53;64.33
11049;BME280;5577;42.706;23.160;2024-02-21T13:22:58;94610.53;;;13.37;59.64
11049;BME280;5577;42.706;23.160;2024-02-21T13:25:41;94583.50;;;12.97;58.02
11049;BME280;5577;42.706;23.160;2024-02-21T13:28:26;94604.94;;;13.42;57.05
11049;BME280;5577;42.706;23.160;2024-02-21T13:31:10;94607.75;;;14.17;56.36
11049;BME280;5577;42.706;23.160;2024-02-21T13:33:53;94594.06;;;14.38;54.71
11049;BME280;5577;42.706;23.160;2024-02-21T13:36:37;94604.81;;;13.77;57.04
11049;BME280;5577;42.706;23.160;2024-02-21T13:39:21;94602.56;;;13.18;59.29
11049;BME280;5577;42.706;23.160;2024-02-21T13:42:06;94599.31;;;12.56;62.37
11049;BME280;5577;42.706;23.160;2024-02-21T13:44:50;94601.81;;;12.49;64.20
11049;BME280;5577;42.706;23.160;2024-02-21T13:47:34;94598.78;;;12.16;65.61
11049;BME280;5577;42.706;23.160;2024-02-21T13:50:23;94598.38;;;11.98;67.62
11049;BME280;5577;42.706;23.160;2024-02-21T13:53:07;94583.81;;;11.77;67.98
11049;BME280;5577;42.706;23.160;2024-02-21T13:55:51;94594.47;;;11.80;68.25
11049;BME280;5577;42.706;23.160;2024-02-21T13:58:36;94591.25;;;12.02;67.20
11049;BME280;5577;42.706;23.160;2024-02-21T14:01:21;94591.25;;;11.87;66.44
11049;BME280;5577;42.706;23.160;2024-02-21T14:04:05;94590.94;;;11.60;68.00
11049;BME280;5577;42.706;23.160;2024-02-21T14:06:48;94592.63;;;11.37;67.82
11049;BME280;5577;42.706;23.160;2024-02-21T14:09:32;94585.78;;;11.36;68.93
11049;BME280;5577;42.706;23.160;2024-02-21T14:12:17;94583.28;;;11.28;68.84
11049;BME280;5577;42.706;23.160;2024-02-21T14:15:04;94583.06;;;10.93;70.75
11049;BME280;5577;42.706;23.160;2024-02-21T14:17:49;94587.34;;;10.98;71.07
11049;BME280;5577;42.706;23.160;2024-02-21T14:20:32;94581.97;;;10.94;72.86
11049;BME280;5577;42.706;23.160;2024-02-21T14:23:16;94582.66;;;10.91;75.04
11049;BME280;5577;42.706;23.160;2024-02-21T14:26:00;94582.13;;;10.86;76.80
11049;BME280;5577;42.706;23.160;2024-02-21T14:28:44;94572.31;;;10.74;76.18
11049;BME280;5577;42.706;23.160;2024-02-21T14:31:31;94584.06;;;10.49;79.83
11049;BME280;5577;42.706;23.160;2024-02-21T14:34:16;94577.22;;;10.48;82.60
11049;BME280;5577;42.706;23.160;2024-02-21T14:37:00;94577.25;;;10.36;83.40
11049;BME280;5577;42.706;23.160;2024-02-21T14:39:44;94577.34;;;10.40;84.23